createdAt,value
2018-01-08T00:00:43.792Z,96.40
2018-01-08T00:03:12.076Z,96.40
2018-01-08T00:05:40.332Z,96.40
2018-01-08T00:08:07.824Z,96.40
2018-01-08T00:10:35.355Z,96.60
2018-01-08T00:13:02.851Z,96.50
2018-01-08T00:15:30.342Z,96.40
2018-01-08T00:17:58.623Z,96.40
2018-01-08T00:20:26.114Z,96.40
2018-01-08T00:22:54.368Z,96.50
2018-01-08T00:25:21.880Z,96.50
2018-01-08T00:27:49.362Z,96.50
2018-01-08T00:30:16.853Z,96.50
2018-01-08T00:32:44.377Z,96.50
2018-01-08T00:35:11.872Z,96.50
2018-01-08T00:37:39.361Z,96.60
2018-01-08T00:40:06.863Z,96.90
2018-01-08T00:42:34.369Z,96.60
2018-01-08T00:45:02.612Z,96.80
2018-01-08T00:47:30.117Z,96.80
2018-01-08T00:49:57.698Z,96.80
2018-01-08T00:52:25.113Z,96.80
2018-01-08T00:54:53.384Z,96.70
2018-01-08T00:57:20.893Z,96.70
2018-01-08T00:59:49.143Z,96.90
2018-01-08T01:02:16.678Z,96.80
2018-01-08T01:04:44.923Z,96.90
2018-01-08T01:07:12.455Z,96.90
2018-01-08T01:09:39.970Z,96.90
2018-01-08T01:12:08.256Z,96.80
2018-01-08T01:14:36.515Z,96.80
2018-01-08T01:17:04.771Z,96.70
2018-01-08T01:19:32.280Z,96.70
2018-01-08T01:21:59.786Z,96.80
2018-01-08T01:24:27.278Z,96.80
2018-01-08T01:26:55.542Z,96.80
2018-01-08T01:29:23.819Z,96.70
2018-01-08T01:31:52.068Z,96.70
2018-01-08T01:34:19.568Z,96.70
2018-01-08T01:36:47.816Z,96.70
2018-01-08T01:39:15.305Z,96.70
2018-01-08T01:41:43.571Z,96.70
2018-01-08T01:44:11.875Z,96.70
2018-01-08T01:46:39.384Z,96.70
2018-01-08T01:49:18.906Z,96.60
2018-01-08T01:51:46.417Z,96.60
2018-01-08T01:54:13.915Z,96.50
2018-01-08T01:56:41.422Z,96.50
2018-01-08T01:59:09.671Z,96.70
2018-01-08T02:01:37.163Z,96.70
2018-01-08T02:04:06.215Z,96.70
2018-01-08T02:06:33.707Z,96.70
2018-01-08T02:09:01.964Z,96.70
2018-01-08T02:11:29.459Z,96.70
2018-01-08T02:13:56.964Z,96.60
2018-01-08T02:16:24.476Z,96.60
2018-01-08T02:18:51.962Z,96.60
2018-01-08T02:21:19.467Z,96.60
2018-01-08T02:23:47.714Z,96.70
2018-01-08T02:26:15.223Z,96.70
2018-01-08T02:28:43.935Z,96.80
2018-01-08T02:31:11.428Z,96.70
2018-01-08T02:33:38.916Z,96.70
2018-01-08T02:36:07.207Z,96.70
2018-01-08T02:38:34.700Z,96.60
2018-01-08T02:41:02.209Z,96.60
2018-01-08T02:43:30.460Z,96.70
2018-01-08T02:45:58.049Z,96.70
2018-01-08T02:48:26.303Z,96.50
2018-01-08T02:50:53.830Z,96.50
2018-01-08T02:53:22.083Z,96.70
2018-01-08T02:55:49.591Z,96.70
2018-01-08T02:58:17.076Z,96.70
2018-01-08T03:00:45.348Z,96.70
2018-01-08T03:03:13.603Z,96.60
2018-01-08T03:05:41.111Z,96.60
2018-01-08T03:08:08.607Z,96.60
2018-01-08T03:10:36.103Z,96.60
2018-01-08T03:13:04.356Z,96.70
2018-01-08T03:15:31.850Z,96.70
2018-01-08T03:17:59.339Z,96.80
2018-01-08T03:20:26.826Z,96.80
2018-01-08T03:22:54.310Z,96.70
2018-01-08T03:25:22.579Z,96.60
2018-01-08T03:27:50.832Z,96.60
2018-01-08T03:30:18.312Z,96.50
2018-01-08T03:32:46.585Z,96.80
2018-01-08T03:35:14.862Z,96.70
2018-01-08T03:37:43.174Z,96.80
2018-01-08T03:40:10.671Z,96.80
2018-01-08T03:42:38.182Z,96.90
2018-01-08T03:45:05.678Z,96.90
2018-01-08T03:47:33.174Z,96.90
2018-01-08T03:50:01.472Z,96.80
2018-01-08T03:52:28.972Z,96.80
2018-01-08T03:54:56.465Z,96.80
2018-01-08T03:57:24.731Z,96.90
2018-01-08T03:59:52.240Z,96.90
2018-01-08T04:02:19.748Z,97.00
2018-01-08T04:04:47.231Z,96.90
2018-01-08T04:07:15.496Z,96.90
2018-01-08T04:09:43.755Z,96.90
2018-01-08T04:12:11.252Z,96.90
2018-01-08T04:14:38.738Z,97.00
2018-01-08T04:17:06.256Z,96.90
2018-01-08T04:19:34.509Z,97.00
2018-01-08T04:22:02.026Z,97.00
2018-01-08T04:24:30.344Z,97.00
2018-01-08T04:26:57.849Z,97.00
2018-01-08T04:29:25.382Z,97.30
2018-01-08T04:31:53.651Z,97.00
2018-01-08T04:34:21.911Z,97.10
2018-01-08T04:36:50.299Z,97.10
2018-01-08T04:39:17.789Z,97.10
2018-01-08T04:41:45.294Z,97.00
2018-01-08T04:44:12.778Z,96.90
2018-01-08T04:46:40.262Z,96.90
2018-01-08T04:49:07.764Z,96.90
2018-01-08T04:51:35.258Z,97.30
2018-01-08T04:54:03.519Z,97.00
2018-01-08T04:56:31.021Z,97.00
2018-01-08T04:58:58.510Z,97.10
2018-01-08T05:01:26.010Z,97.10
2018-01-08T05:03:54.263Z,97.10
2018-01-08T05:06:21.751Z,97.10
2018-01-08T05:08:50.022Z,97.10
2018-01-08T05:11:18.287Z,97.20
2018-01-08T05:13:46.550Z,97.20
2018-01-08T05:16:14.039Z,97.10
2018-01-08T05:18:42.326Z,97.10
2018-01-08T05:21:09.820Z,97.10
2018-01-08T05:23:37.305Z,97.10
2018-01-08T05:26:04.800Z,97.20
2018-01-08T05:28:32.295Z,97.20
2018-01-08T05:30:59.799Z,96.90
2018-01-08T05:33:28.040Z,96.90
2018-01-08T05:35:55.526Z,96.90
2018-01-08T05:38:23.784Z,97.00
2018-01-08T05:40:51.300Z,97.00
2018-01-08T05:43:18.783Z,96.90
2018-01-08T05:45:46.281Z,96.90
2018-01-08T05:48:14.542Z,96.80
2018-01-08T05:50:42.035Z,96.80
2018-01-08T05:53:09.573Z,96.70
2018-01-08T05:55:37.834Z,96.60
2018-01-08T05:58:05.337Z,96.60
2018-01-08T06:00:32.838Z,96.50
2018-01-08T06:03:00.344Z,96.50
2018-01-08T06:05:27.835Z,96.50
2018-01-08T06:07:55.320Z,96.60
2018-01-08T06:10:23.621Z,96.60
2018-01-08T06:12:52.589Z,96.60
2018-01-08T06:15:20.211Z,96.60
2018-01-08T06:17:47.707Z,96.70
2018-01-08T06:20:15.213Z,96.70
2018-01-08T06:22:42.716Z,96.70
2018-01-08T06:25:10.310Z,96.70
2018-01-08T06:27:38.586Z,96.60
2018-01-08T06:30:06.877Z,96.60
2018-01-08T06:32:34.383Z,96.60
2018-01-08T06:35:01.895Z,96.60
2018-01-08T06:37:29.393Z,96.60
2018-01-08T06:39:56.892Z,96.60
2018-01-08T06:42:25.151Z,96.50
2018-01-08T06:44:52.649Z,96.50
2018-01-08T06:47:20.147Z,96.70
2018-01-08T06:49:47.634Z,99.90
2018-01-08T06:52:15.154Z,99.90
2018-01-08T06:54:42.671Z,99.90
2018-01-08T06:57:10.927Z,99.90
2018-01-08T06:59:38.463Z,99.90
2018-01-08T07:02:05.980Z,99.90
2018-01-08T07:04:33.468Z,99.90
2018-01-08T07:07:00.985Z,99.90
2018-01-08T07:09:29.256Z,99.40
2018-01-08T07:11:56.756Z,99.40
2018-01-08T07:14:24.279Z,98.90
2018-01-08T07:16:52.703Z,98.90
2018-01-08T07:19:20.198Z,98.90
2018-01-08T07:21:48.461Z,98.30
2018-01-08T07:24:15.956Z,98.30
2018-01-08T07:26:43.474Z,99.20
2018-01-08T07:29:10.967Z,98.80
2018-01-08T07:31:38.502Z,97.80
2018-01-08T07:34:05.999Z,97.50
2018-01-08T07:36:33.519Z,97.10
2018-01-08T07:39:01.016Z,97.30
2018-01-08T07:41:28.538Z,97.20
2018-01-08T07:43:56.074Z,97.00
2018-01-08T07:46:23.581Z,96.70
2018-01-08T07:48:51.076Z,96.70
2018-01-08T07:51:18.628Z,96.60
2018-01-08T07:53:46.122Z,96.80
2018-01-08T07:56:13.636Z,96.60
2018-01-08T07:58:41.119Z,96.40
2018-01-08T08:01:08.609Z,96.30
2018-01-08T08:03:36.924Z,96.30
2018-01-08T08:06:04.421Z,96.30
2018-01-08T08:08:31.933Z,96.30
2018-01-08T08:10:59.431Z,96.20
2018-01-08T08:13:26.911Z,96.10
2018-01-08T08:15:54.418Z,96.00
2018-01-08T08:18:21.907Z,95.80
2018-01-08T08:20:49.423Z,95.90
2018-01-08T08:23:16.920Z,95.60
2018-01-08T08:25:44.415Z,95.50
2018-01-08T08:28:12.672Z,95.20
2018-01-08T08:30:40.170Z,95.10
2018-01-08T08:33:07.695Z,94.90
2018-01-08T08:35:35.201Z,94.90
2018-01-08T08:38:02.779Z,95.00
2018-01-08T08:40:30.331Z,94.30
2018-01-08T08:42:57.828Z,94.40
2018-01-08T08:45:26.117Z,94.30
2018-01-08T08:47:54.378Z,93.30
2018-01-08T08:50:21.888Z,93.30
2018-01-08T08:52:49.388Z,93.10
2018-01-08T08:55:16.899Z,92.70
2018-01-08T08:57:44.410Z,92.70
2018-01-08T09:00:11.942Z,92.40
2018-01-08T09:02:40.251Z,92.10
2018-01-08T09:05:07.736Z,92.20
2018-01-08T09:07:36.009Z,91.30
2018-01-08T09:10:04.258Z,91.60
2018-01-08T09:12:31.749Z,91.60
2018-01-08T09:15:00.012Z,90.70
2018-01-08T09:17:28.267Z,90.80
2018-01-08T09:19:55.745Z,90.80
2018-01-08T09:22:24.006Z,89.70
2018-01-08T09:24:51.489Z,89.60
2018-01-08T09:27:19.750Z,88.10
2018-01-08T09:29:47.234Z,88.00
2018-01-08T09:32:14.735Z,86.40
2018-01-08T09:34:42.227Z,85.90
2018-01-08T09:37:10.489Z,84.80
2018-01-08T09:39:37.998Z,84.80
2018-01-08T09:42:05.504Z,83.90
2018-01-08T09:44:32.997Z,83.40
2018-01-08T09:47:00.496Z,81.90
2018-01-08T09:49:27.981Z,81.80
2018-01-08T09:51:55.477Z,82.30
2018-01-08T09:54:22.964Z,83.00
2018-01-08T09:56:50.463Z,82.20
2018-01-08T09:59:18.731Z,80.40
2018-01-08T10:01:46.230Z,80.30
2018-01-08T10:04:25.839Z,79.50
2018-01-08T10:07:05.305Z,78.90
2018-01-08T10:09:44.716Z,79.00
2018-01-08T10:12:24.935Z,77.20
2018-01-08T10:15:04.161Z,77.10
2018-01-08T10:17:43.578Z,75.60
2018-01-08T10:20:11.180Z,75.40
2018-01-08T10:22:40.195Z,74.10
2018-01-08T10:25:07.706Z,74.20
2018-01-08T10:27:35.192Z,73.20
2018-01-08T10:30:02.714Z,71.40
2018-01-08T10:32:30.208Z,71.60
2018-01-08T10:34:58.454Z,72.10
2018-01-08T10:37:25.962Z,72.10
2018-01-08T10:39:53.453Z,71.50
2018-01-08T10:42:26.702Z,70.80
2018-01-08T10:44:59.877Z,70.10
2018-01-08T10:47:33.178Z,70.80
2018-01-08T10:50:06.540Z,70.20
2018-01-08T10:52:34.070Z,70.20
2018-01-08T10:55:08.125Z,69.70
2018-01-08T10:57:35.607Z,69.80
2018-01-08T11:00:03.091Z,70.40
2018-01-08T11:02:36.967Z,69.60
2018-01-08T11:05:04.454Z,69.50
2018-01-08T11:07:32.788Z,69.50
2018-01-08T11:10:00.287Z,69.50
2018-01-08T11:12:27.781Z,68.10
2018-01-08T11:14:55.273Z,67.20
2018-01-08T11:17:22.815Z,66.80
2018-01-08T11:19:50.286Z,65.80
2018-01-08T11:22:18.580Z,65.60
2018-01-08T11:24:46.064Z,65.50
2018-01-08T11:27:14.328Z,64.80
2018-01-08T11:29:41.817Z,64.80
2018-01-08T11:32:09.308Z,66.30
2018-01-08T11:34:36.813Z,65.20
2018-01-08T11:37:05.095Z,63.00
2018-01-08T11:39:33.396Z,62.60
2018-01-08T11:42:00.914Z,62.60
2018-01-08T11:44:28.408Z,63.20
2018-01-08T11:46:55.919Z,63.00
2018-01-08T11:49:23.417Z,63.50
2018-01-08T11:51:50.924Z,64.10
2018-01-08T11:54:18.431Z,63.90
2018-01-08T11:56:47.365Z,61.60
2018-01-08T11:59:14.852Z,61.50
2018-01-08T12:01:42.348Z,61.40
2018-01-08T12:04:09.835Z,61.80
2018-01-08T12:06:37.327Z,60.70
2018-01-08T12:09:04.811Z,60.80
2018-01-08T12:11:33.082Z,60.40
2018-01-08T12:14:01.360Z,60.50
2018-01-08T12:16:30.235Z,60.10
2018-01-08T12:18:57.710Z,60.10
2018-01-08T12:21:25.972Z,61.30
2018-01-08T12:23:53.441Z,61.30
2018-01-08T12:26:21.722Z,62.70
2018-01-08T12:28:49.212Z,62.60
2018-01-08T12:31:16.762Z,62.30
2018-01-08T12:33:44.266Z,62.50
2018-01-08T12:36:11.784Z,63.30
2018-01-08T12:38:39.272Z,62.90
2018-01-08T12:41:06.758Z,62.40
2018-01-08T12:43:35.024Z,62.40
2018-01-08T12:46:03.300Z,62.40
2018-01-08T12:48:30.790Z,62.90
2018-01-08T12:50:58.280Z,62.70
2018-01-08T12:53:25.790Z,62.80
2018-01-08T12:55:54.118Z,61.90
2018-01-08T12:58:21.613Z,61.90
2018-01-08T13:00:49.110Z,61.70
2018-01-08T13:03:16.607Z,61.80
2018-01-08T13:05:44.095Z,62.10
2018-01-08T13:08:12.384Z,63.60
2018-01-08T13:10:40.647Z,62.40
2018-01-08T13:13:08.132Z,62.40
2018-01-08T13:15:35.640Z,62.40
2018-01-08T13:18:03.131Z,61.80
2018-01-08T13:20:30.643Z,61.90
2018-01-08T13:22:58.127Z,62.20
2018-01-08T13:25:25.641Z,62.40
2018-01-08T13:27:53.281Z,61.80
2018-01-08T13:30:20.807Z,61.70
2018-01-08T13:32:49.069Z,61.50
2018-01-08T13:35:16.631Z,61.50
2018-01-08T13:37:44.114Z,61.70
2018-01-08T13:40:11.663Z,61.50
2018-01-08T13:42:39.989Z,63.40
2018-01-08T13:45:07.507Z,62.50
2018-01-08T13:47:35.869Z,78.60
2018-01-08T13:50:03.362Z,78.30
2018-01-08T13:52:30.926Z,64.50
2018-01-08T13:54:59.176Z,63.00
2018-01-08T13:57:27.441Z,62.80
2018-01-08T13:59:54.935Z,62.70
2018-01-08T14:02:22.519Z,63.50
2018-01-08T14:04:50.027Z,63.80
2018-01-08T14:07:17.623Z,63.90
2018-01-08T14:09:45.119Z,63.70
2018-01-08T14:12:12.629Z,64.00
2018-01-08T14:14:40.114Z,64.90
2018-01-08T14:17:07.620Z,64.30
2018-01-08T14:19:35.897Z,64.60
2018-01-08T14:22:04.220Z,64.90
2018-01-08T14:24:31.714Z,64.80
2018-01-08T14:26:59.209Z,65.40
2018-01-08T14:29:26.698Z,64.60
2018-01-08T14:31:54.207Z,65.10
2018-01-08T14:34:22.475Z,66.40
2018-01-08T14:36:50.819Z,65.90
2018-01-08T14:39:18.322Z,65.90
2018-01-08T14:41:46.591Z,66.60
2018-01-08T14:44:14.099Z,66.60
2018-01-08T14:46:41.625Z,66.90
2018-01-08T14:49:09.887Z,67.20
2018-01-08T14:51:37.400Z,67.10
2018-01-08T14:54:04.888Z,66.80
2018-01-08T14:56:33.215Z,67.60
2018-01-08T14:59:00.736Z,67.50
2018-01-08T15:01:28.231Z,67.80
2018-01-08T15:03:55.730Z,68.40
2018-01-08T15:06:23.991Z,68.80
2018-01-08T15:08:51.484Z,68.80
2018-01-08T15:11:18.978Z,68.70
2018-01-08T15:13:46.462Z,69.30
2018-01-08T15:16:14.035Z,70.00
2018-01-08T15:18:41.569Z,70.10
2018-01-08T15:21:09.202Z,70.30
2018-01-08T15:23:37.455Z,70.50
2018-01-08T15:26:06.871Z,70.40
2018-01-08T15:28:34.383Z,70.70
2018-01-08T15:31:02.663Z,71.10
2018-01-08T15:33:30.147Z,70.90
2018-01-08T15:35:58.450Z,71.40
2018-01-08T15:38:26.704Z,71.00
2018-01-08T15:40:54.236Z,71.00
2018-01-08T15:43:21.736Z,70.70
2018-01-08T15:45:50.022Z,71.60
2018-01-08T15:48:18.266Z,71.40
2018-01-08T15:50:45.762Z,71.40
2018-01-08T15:53:14.040Z,71.60
2018-01-08T15:55:41.599Z,71.60
2018-01-08T15:58:09.857Z,72.50
2018-01-08T16:00:37.338Z,72.40
2018-01-08T16:03:04.889Z,71.90
2018-01-08T16:05:33.277Z,72.20
2018-01-08T16:08:00.771Z,71.50
2018-01-08T16:10:28.279Z,72.20
2018-01-08T16:12:56.527Z,71.80
2018-01-08T16:15:24.047Z,71.80
2018-01-08T16:17:51.547Z,71.80
2018-01-08T16:20:19.060Z,71.60
2018-01-08T16:22:46.558Z,71.70
2018-01-08T16:25:14.075Z,71.40
2018-01-08T16:27:41.564Z,72.00
2018-01-08T16:30:09.053Z,71.40
2018-01-08T16:32:36.560Z,71.10
2018-01-08T16:35:05.196Z,72.20
2018-01-08T16:37:32.860Z,71.70
2018-01-08T16:40:01.112Z,82.40
2018-01-08T16:42:28.715Z,82.30
2018-01-08T16:44:56.988Z,72.30
2018-01-08T16:47:25.263Z,72.40
2018-01-08T16:49:53.527Z,72.40
2018-01-08T16:52:21.029Z,72.40
2018-01-08T16:54:48.541Z,72.90
2018-01-08T16:57:16.106Z,72.90
2018-01-08T16:59:44.370Z,73.20
2018-01-08T17:02:11.944Z,73.20
2018-01-08T17:04:40.244Z,73.20
2018-01-08T17:07:07.752Z,73.20
2018-01-08T17:09:35.235Z,72.90
2018-01-08T17:12:03.523Z,73.00
2018-01-08T17:14:31.775Z,72.70
2018-01-08T17:16:59.290Z,72.70
2018-01-08T17:19:26.842Z,73.80
2018-01-08T17:21:54.343Z,73.60
2018-01-08T17:24:21.896Z,73.50
2018-01-08T17:26:49.407Z,74.20
2018-01-08T17:29:16.903Z,74.30
2018-01-08T17:31:44.402Z,73.90
2018-01-08T17:34:12.678Z,74.60
2018-01-08T17:36:40.183Z,74.60
2018-01-08T17:39:07.680Z,74.60
2018-01-08T17:41:36.686Z,75.00
2018-01-08T17:44:04.942Z,75.20
2018-01-08T17:46:32.437Z,75.10
2018-01-08T17:49:00.728Z,76.10
2018-01-08T17:51:28.228Z,76.10
2018-01-08T17:53:55.710Z,75.70
2018-01-08T17:56:23.302Z,75.70
2018-01-08T17:58:50.895Z,76.40
2018-01-08T18:01:18.412Z,76.80
2018-01-08T18:05:23.441Z,76.40
2018-01-08T18:07:51.710Z,76.60
2018-01-08T18:10:19.968Z,77.00
2018-01-08T18:12:47.458Z,76.80
2018-01-08T18:15:14.997Z,76.80
2018-01-08T18:17:42.513Z,76.90
2018-01-08T18:20:10.030Z,76.80
2018-01-08T18:22:38.309Z,77.90
2018-01-08T18:25:05.827Z,77.90
2018-01-08T18:27:33.359Z,78.00
2018-01-08T18:30:00.859Z,77.60
2018-01-08T18:32:28.375Z,77.90
2018-01-08T18:34:55.909Z,77.40
2018-01-08T18:37:24.171Z,78.10
2018-01-08T18:39:52.423Z,78.00
2018-01-08T18:42:19.926Z,78.00
2018-01-08T18:44:47.437Z,78.50
2018-01-08T18:47:14.936Z,78.70
2018-01-08T18:49:43.196Z,78.90
2018-01-08T18:52:10.736Z,78.80
2018-01-08T18:54:38.251Z,79.10
2018-01-08T18:57:05.739Z,79.20
2018-01-08T18:59:33.247Z,79.20
2018-01-08T19:02:01.503Z,79.40
2018-01-08T19:04:28.981Z,79.40
2018-01-08T19:06:57.302Z,79.20
2018-01-08T19:09:24.796Z,79.20
2018-01-08T19:11:53.102Z,79.10
2018-01-08T19:14:20.594Z,79.00
2018-01-08T19:16:48.119Z,79.50
2018-01-08T19:19:15.606Z,78.80
2018-01-08T19:21:43.120Z,78.80
2018-01-08T19:24:11.379Z,79.90
2018-01-08T19:26:38.904Z,79.80
2018-01-08T19:29:07.159Z,78.90
2018-01-08T19:31:34.652Z,78.90
2018-01-08T19:34:02.161Z,79.10
2018-01-08T19:36:29.714Z,79.20
2018-01-08T19:38:57.992Z,79.20
2018-01-08T19:41:25.497Z,79.20
2018-01-08T19:43:53.006Z,79.50
2018-01-08T19:46:20.583Z,79.30
2018-01-08T19:48:48.093Z,79.50
2018-01-08T19:51:15.682Z,79.60
2018-01-08T19:53:43.999Z,79.80
2018-01-08T19:56:11.628Z,79.80
2018-01-08T19:58:39.108Z,79.60
2018-01-08T20:01:06.635Z,80.20
2018-01-08T20:03:34.887Z,80.10
2018-01-08T20:06:02.383Z,80.10
2018-01-08T20:08:29.897Z,80.00
2018-01-08T20:10:57.383Z,80.20
2018-01-08T20:13:25.635Z,80.60
2018-01-08T20:15:53.159Z,80.50
2018-01-08T20:18:20.686Z,80.50
2018-01-08T20:20:48.980Z,80.40
2018-01-08T20:23:16.484Z,80.40
2018-01-08T20:25:44.025Z,80.70
2018-01-08T20:28:11.590Z,80.30
2018-01-08T20:30:39.135Z,80.50
2018-01-08T20:33:07.426Z,80.50
2018-01-08T20:35:35.741Z,80.90
2018-01-08T20:38:04.030Z,80.50
2018-01-08T20:40:32.331Z,80.60
2018-01-08T20:42:59.823Z,80.60
2018-01-08T20:45:27.343Z,80.90
2018-01-08T20:47:54.859Z,80.60
2018-01-08T20:50:22.384Z,81.20
2018-01-08T20:52:50.202Z,81.40
2018-01-08T20:55:18.580Z,81.40
2018-01-08T20:57:46.839Z,81.50
2018-01-08T21:00:14.559Z,81.50
2018-01-08T21:02:42.077Z,82.20
2018-01-08T21:05:10.328Z,81.30
2018-01-08T21:07:39.368Z,81.30
2018-01-08T21:10:06.907Z,81.20
2018-01-08T21:12:35.155Z,82.00
2018-01-08T21:15:02.648Z,82.00
2018-01-08T21:17:30.152Z,81.70
2018-01-08T21:19:58.398Z,81.90
2018-01-08T21:22:25.930Z,81.90
2018-01-08T21:24:57.828Z,82.20
2018-01-08T21:27:25.322Z,82.10
2018-01-08T21:29:52.819Z,82.30
2018-01-08T21:32:20.319Z,82.50
2018-01-08T21:34:47.827Z,83.00
2018-01-08T21:37:16.105Z,82.80
2018-01-08T21:39:44.365Z,82.70
2018-01-08T21:42:12.681Z,83.00
2018-01-08T21:44:40.243Z,83.00
2018-01-08T21:47:07.800Z,83.00
2018-01-08T21:49:35.325Z,82.90
2018-01-08T21:52:03.608Z,83.20
2018-01-08T21:54:31.883Z,96.80
2018-01-08T21:57:00.175Z,94.80
2018-01-08T21:59:27.729Z,94.80
2018-01-08T22:01:56.026Z,85.30
2018-01-08T22:04:23.551Z,85.30
2018-01-08T22:06:51.844Z,84.40
2018-01-08T22:09:20.098Z,84.50
2018-01-08T22:11:47.589Z,84.50
2018-01-08T22:14:15.084Z,84.50
2018-01-08T22:16:42.583Z,85.00
2018-01-08T22:19:10.829Z,84.40
2018-01-08T22:21:38.319Z,84.40
2018-01-08T22:24:06.581Z,84.40
2018-01-08T22:26:34.074Z,84.40
2018-01-08T22:29:01.560Z,85.20
2018-01-08T22:31:29.052Z,84.60
2018-01-08T22:33:56.551Z,84.50
2018-01-08T22:36:24.073Z,84.30
2018-01-08T22:38:51.557Z,84.40
2018-01-08T22:41:19.053Z,84.40
2018-01-08T22:43:46.539Z,84.20
2018-01-08T22:46:14.026Z,84.40
2018-01-08T22:48:42.287Z,84.80
2018-01-08T22:51:10.603Z,85.10
2018-01-08T22:53:38.094Z,84.50
2018-01-08T22:56:05.595Z,84.50
2018-01-08T22:58:33.097Z,84.60
2018-01-08T23:01:00.648Z,84.70
2018-01-08T23:03:28.138Z,84.60
2018-01-08T23:05:55.648Z,84.40
2018-01-08T23:08:23.193Z,84.70
2018-01-08T23:10:51.463Z,84.50
2018-01-08T23:13:19.734Z,84.20
2018-01-08T23:15:48.008Z,84.50
2018-01-08T23:18:16.307Z,84.80
2018-01-08T23:20:43.831Z,84.80
2018-01-08T23:23:11.312Z,85.10
2018-01-08T23:25:39.567Z,84.90
2018-01-08T23:28:07.056Z,84.80
2018-01-08T23:30:34.552Z,84.70
2018-01-08T23:33:02.068Z,84.90
2018-01-08T23:35:29.559Z,85.00
2018-01-08T23:37:57.063Z,85.00
2018-01-08T23:40:24.561Z,85.20
2018-01-08T23:42:52.046Z,85.60
2018-01-08T23:45:19.548Z,85.80
2018-01-08T23:47:47.802Z,85.90
2018-01-08T23:50:15.383Z,86.50
2018-01-08T23:52:43.653Z,86.20
2018-01-08T23:55:11.924Z,86.10
2018-01-08T23:57:39.408Z,86.10
